sensor_id;sensor_type;location;lat;lon;timestamp;P1;durP1;ratioP1;P2;durP2;ratioP2
24381;SDS011;12502;50.678;7.172;2022-09-17T00:03:04;3.88;;;1.50;;
24381;SDS011;12502;50.678;7.172;2022-09-17T00:08:09;6.15;;;1.60;;
24381;SDS011;12502;50.678;7.172;2022-09-17T00:13:13;3.40;;;1.60;;
24381;SDS011;12502;50.678;7.172;2022-09-17T00:18:15;5.25;;;1.50;;
24381;SDS011;12502;50.678;7.172;2022-09-17T00:23:17;9.57;;;2.25;;
24381;SDS011;12502;50.678;7.172;2022-09-17T00:28:19;5.07;;;2.08;;
24381;SDS011;12502;50.678;7.172;2022-09-17T00:33:20;7.05;;;2.10;;
24381;SDS011;12502;50.678;7.172;2022-09-17T00:38:22;9.35;;;2.55;;
24381;SDS011;12502;50.678;7.172;2022-09-17T00:43:35;6.90;;;1.95;;
24381;SDS011;12502;50.678;7.172;2022-09-17T00:48:37;7.18;;;1.88;;
24381;SDS011;12502;50.678;7.172;2022-09-17T00:53:39;5.95;;;2.03;;
24381;SDS011;12502;50.678;7.172;2022-09-17T00:58:42;6.53;;;1.90;;
24381;SDS011;12502;50.678;7.172;2022-09-17T01:03:44;5.15;;;1.92;;
24381;SDS011;12502;50.678;7.172;2022-09-17T01:31:25;6.95;;;2.10;;
24381;SDS011;12502;50.678;7.172;2022-09-17T01:47:33;7.30;;;2.22;;
24381;SDS011;12502;50.678;7.172;2022-09-17T01:52:47;7.78;;;2.67;;
24381;SDS011;12502;50.678;7.172;2022-09-17T01:57:56;6.82;;;2.17;;
24381;SDS011;12502;50.678;7.172;2022-09-17T02:03:15;8.00;;;3.05;;
24381;SDS011;12502;50.678;7.172;2022-09-17T02:08:49;8.63;;;2.35;;
24381;SDS011;12502;50.678;7.172;2022-09-17T02:13:57;5.53;;;2.88;;
24381;SDS011;12502;50.678;7.172;2022-09-17T02:29:28;9.65;;;2.80;;
24381;SDS011;12502;50.678;7.172;2022-09-17T02:34:37;7.88;;;2.15;;
24381;SDS011;12502;50.678;7.172;2022-09-17T02:39:39;11.75;;;2.47;;
24381;SDS011;12502;50.678;7.172;2022-09-17T03:00:20;8.30;;;2.33;;
24381;SDS011;12502;50.678;7.172;2022-09-17T03:05:23;9.18;;;2.65;;
24381;SDS011;12502;50.678;7.172;2022-09-17T03:10:26;7.40;;;2.45;;
24381;SDS011;12502;50.678;7.172;2022-09-17T03:15:30;8.98;;;2.45;;
24381;SDS011;12502;50.678;7.172;2022-09-17T03:20:32;9.15;;;2.17;;
24381;SDS011;12502;50.678;7.172;2022-09-17T03:25:34;9.32;;;2.10;;
24381;SDS011;12502;50.678;7.172;2022-09-17T03:30:35;9.02;;;2.50;;
24381;SDS011;12502;50.678;7.172;2022-09-17T03:35:37;9.45;;;2.13;;
24381;SDS011;12502;50.678;7.172;2022-09-17T03:40:42;14.85;;;2.20;;
24381;SDS011;12502;50.678;7.172;2022-09-17T03:45:44;10.75;;;2.47;;
24381;SDS011;12502;50.678;7.172;2022-09-17T03:50:47;6.97;;;2.03;;
24381;SDS011;12502;50.678;7.172;2022-09-17T03:55:49;8.48;;;2.08;;
24381;SDS011;12502;50.678;7.172;2022-09-17T04:00:51;12.32;;;2.42;;
24381;SDS011;12502;50.678;7.172;2022-09-17T04:05:53;7.57;;;2.03;;
24381;SDS011;12502;50.678;7.172;2022-09-17T04:10:55;12.27;;;1.90;;
24381;SDS011;12502;50.678;7.172;2022-09-17T04:15:57;9.65;;;2.05;;
24381;SDS011;12502;50.678;7.172;2022-09-17T04:20:58;10.25;;;1.83;;
24381;SDS011;12502;50.678;7.172;2022-09-17T04:26:00;7.15;;;2.00;;
24381;SDS011;12502;50.678;7.172;2022-09-17T04:31:02;9.68;;;2.03;;
24381;SDS011;12502;50.678;7.172;2022-09-17T04:36:04;12.10;;;2.53;;
24381;SDS011;12502;50.678;7.172;2022-09-17T04:41:06;12.00;;;2.30;;
24381;SDS011;12502;50.678;7.172;2022-09-17T04:46:08;9.82;;;2.30;;
24381;SDS011;12502;50.678;7.172;2022-09-17T04:51:09;9.80;;;2.00;;
24381;SDS011;12502;50.678;7.172;2022-09-17T04:56:11;5.55;;;1.80;;
24381;SDS011;12502;50.678;7.172;2022-09-17T05:01:13;5.80;;;2.25;;
24381;SDS011;12502;50.678;7.172;2022-09-17T05:06:15;7.82;;;2.05;;
24381;SDS011;12502;50.678;7.172;2022-09-17T05:11:17;8.63;;;2.13;;
24381;SDS011;12502;50.678;7.172;2022-09-17T05:16:18;10.27;;;2.08;;
24381;SDS011;12502;50.678;7.172;2022-09-17T05:21:20;11.07;;;2.03;;
24381;SDS011;12502;50.678;7.172;2022-09-17T05:26:22;10.38;;;2.13;;
24381;SDS011;12502;50.678;7.172;2022-09-17T05:31:24;8.40;;;1.80;;
24381;SDS011;12502;50.678;7.172;2022-09-17T05:36:25;11.40;;;2.38;;
24381;SDS011;12502;50.678;7.172;2022-09-17T05:41:27;10.75;;;2.25;;
24381;SDS011;12502;50.678;7.172;2022-09-17T05:46:29;11.32;;;2.55;;
24381;SDS011;12502;50.678;7.172;2022-09-17T05:51:31;11.02;;;2.28;;
24381;SDS011;12502;50.678;7.172;2022-09-17T05:56:32;15.65;;;2.28;;
24381;SDS011;12502;50.678;7.172;2022-09-17T06:01:34;10.48;;;2.03;;
24381;SDS011;12502;50.678;7.172;2022-09-17T06:06:36;9.45;;;1.75;;
24381;SDS011;12502;50.678;7.172;2022-09-17T06:11:39;8.65;;;1.85;;
24381;SDS011;12502;50.678;7.172;2022-09-17T06:16:42;10.38;;;2.03;;
24381;SDS011;12502;50.678;7.172;2022-09-17T06:22:09;8.32;;;2.10;;
24381;SDS011;12502;50.678;7.172;2022-09-17T06:27:12;9.90;;;1.67;;
24381;SDS011;12502;50.678;7.172;2022-09-17T06:32:14;7.88;;;2.05;;
24381;SDS011;12502;50.678;7.172;2022-09-17T06:37:17;11.98;;;2.35;;
24381;SDS011;12502;50.678;7.172;2022-09-17T06:42:19;9.13;;;1.80;;
24381;SDS011;12502;50.678;7.172;2022-09-17T06:47:23;11.30;;;2.15;;
24381;SDS011;12502;50.678;7.172;2022-09-17T06:57:27;11.05;;;2.05;;
24381;SDS011;12502;50.678;7.172;2022-09-17T07:02:28;10.63;;;1.70;;
24381;SDS011;12502;50.678;7.172;2022-09-17T07:07:30;9.10;;;2.35;;
24381;SDS011;12502;50.678;7.172;2022-09-17T07:12:32;6.60;;;1.65;;
24381;SDS011;12502;50.678;7.172;2022-09-17T07:17:34;10.05;;;1.63;;
24381;SDS011;12502;50.678;7.172;2022-09-17T07:22:36;10.88;;;1.83;;
24381;SDS011;12502;50.678;7.172;2022-09-17T07:27:37;7.60;;;1.70;;
24381;SDS011;12502;50.678;7.172;2022-09-17T07:32:39;7.45;;;1.50;;
24381;SDS011;12502;50.678;7.172;2022-09-17T07:37:42;3.95;;;1.48;;
24381;SDS011;12502;50.678;7.172;2022-09-17T07:42:44;7.30;;;1.67;;
24381;SDS011;12502;50.678;7.172;2022-09-17T07:47:46;7.28;;;2.35;;
24381;SDS011;12502;50.678;7.172;2022-09-17T07:52:47;9.95;;;2.03;;
24381;SDS011;12502;50.678;7.172;2022-09-17T07:57:50;7.85;;;1.75;;
24381;SDS011;12502;50.678;7.172;2022-09-17T08:02:53;12.13;;;1.65;;
24381;SDS011;12502;50.678;7.172;2022-09-17T08:07:55;11.43;;;2.40;;
24381;SDS011;12502;50.678;7.172;2022-09-17T08:12:57;13.88;;;1.98;;
24381;SDS011;12502;50.678;7.172;2022-09-17T08:17:59;11.70;;;2.53;;
24381;SDS011;12502;50.678;7.172;2022-09-17T08:23:01;8.20;;;1.83;;
24381;SDS011;12502;50.678;7.172;2022-09-17T08:28:03;11.98;;;2.22;;
24381;SDS011;12502;50.678;7.172;2022-09-17T08:33:04;9.10;;;2.47;;
24381;SDS011;12502;50.678;7.172;2022-09-17T08:38:06;11.27;;;1.95;;
24381;SDS011;12502;50.678;7.172;2022-09-17T08:43:09;10.27;;;1.50;;
24381;SDS011;12502;50.678;7.172;2022-09-17T08:48:17;6.20;;;1.67;;
24381;SDS011;12502;50.678;7.172;2022-09-17T08:53:25;9.38;;;1.92;;
24381;SDS011;12502;50.678;7.172;2022-09-17T08:58:56;10.23;;;2.08;;
24381;SDS011;12502;50.678;7.172;2022-09-17T09:09:44;9.38;;;1.73;;
24381;SDS011;12502;50.678;7.172;2022-09-17T09:14:55;9.00;;;1.80;;
24381;SDS011;12502;50.678;7.172;2022-09-17T09:20:01;4.90;;;1.50;;
24381;SDS011;12502;50.678;7.172;2022-09-17T09:30:29;8.73;;;1.75;;
24381;SDS011;12502;50.678;7.172;2022-09-17T09:35:58;8.18;;;1.65;;
24381;SDS011;12502;50.678;7.172;2022-09-17T09:41:10;7.72;;;1.48;;
24381;SDS011;12502;50.678;7.172;2022-09-17T09:51:53;5.50;;;1.50;;
24381;SDS011;12502;50.678;7.172;2022-09-17T09:57:03;6.60;;;1.35;;
24381;SDS011;12502;50.678;7.172;2022-09-17T10:02:10;9.10;;;1.77;;
24381;SDS011;12502;50.678;7.172;2022-09-17T10:07:12;3.97;;;1.20;;
24381;SDS011;12502;50.678;7.172;2022-09-17T10:12:14;3.97;;;1.20;;
24381;SDS011;12502;50.678;7.172;2022-09-17T10:17:21;7.83;;;1.50;;
24381;SDS011;12502;50.678;7.172;2022-09-17T10:22:31;7.20;;;1.50;;
24381;SDS011;12502;50.678;7.172;2022-09-17T10:27:37;7.82;;;1.70;;
24381;SDS011;12502;50.678;7.172;2022-09-17T10:33:09;5.07;;;1.35;;
24381;SDS011;12502;50.678;7.172;2022-09-17T10:38:33;8.82;;;1.33;;
24381;SDS011;12502;50.678;7.172;2022-09-17T10:43:40;6.65;;;1.15;;
24381;SDS011;12502;50.678;7.172;2022-09-17T10:49:30;4.50;;;1.10;;
24381;SDS011;12502;50.678;7.172;2022-09-17T11:25:59;7.30;;;1.55;;
24381;SDS011;12502;50.678;7.172;2022-09-17T11:37:19;5.78;;;1.33;;
24381;SDS011;12502;50.678;7.172;2022-09-17T11:42:38;6.22;;;1.20;;
24381;SDS011;12502;50.678;7.172;2022-09-17T11:58:42;4.75;;;0.80;;
24381;SDS011;12502;50.678;7.172;2022-09-17T12:09:31;6.75;;;1.00;;
24381;SDS011;12502;50.678;7.172;2022-09-17T12:19:52;2.53;;;0.88;;
24381;SDS011;12502;50.678;7.172;2022-09-17T12:24:57;7.93;;;1.05;;
24381;SDS011;12502;50.678;7.172;2022-09-17T12:40:25;4.43;;;1.00;;
24381;SDS011;12502;50.678;7.172;2022-09-17T13:02:07;4.53;;;1.27;;
24381;SDS011;12502;50.678;7.172;2022-09-17T13:12:48;4.45;;;1.30;;
24381;SDS011;12502;50.678;7.172;2022-09-17T13:19:01;2.53;;;1.27;;
24381;SDS011;12502;50.678;7.172;2022-09-17T13:24:23;3.10;;;0.95;;
24381;SDS011;12502;50.678;7.172;2022-09-17T13:30:10;3.47;;;0.77;;
24381;SDS011;12502;50.678;7.172;2022-09-17T13:34:54;3.83;;;1.88;;
24381;SDS011;12502;50.678;7.172;2022-09-17T13:39:56;2.05;;;0.90;;
24381;SDS011;12502;50.678;7.172;2022-09-17T13:50:11;2.65;;;0.60;;
24381;SDS011;12502;50.678;7.172;2022-09-17T13:55:32;1.00;;;0.55;;
24381;SDS011;12502;50.678;7.172;2022-09-17T14:00:55;3.55;;;0.60;;
24381;SDS011;12502;50.678;7.172;2022-09-17T14:11:54;3.22;;;0.55;;
24381;SDS011;12502;50.678;7.172;2022-09-17T14:21:43;2.10;;;0.50;;
24381;SDS011;12502;50.678;7.172;2022-09-17T14:32:50;4.13;;;0.80;;
24381;SDS011;12502;50.678;7.172;2022-09-17T14:37:58;2.40;;;0.63;;
24381;SDS011;12502;50.678;7.172;2022-09-17T14:43:42;4.40;;;0.70;;
24381;SDS011;12502;50.678;7.172;2022-09-17T15:04:54;2.92;;;0.80;;
24381;SDS011;12502;50.678;7.172;2022-09-17T15:10:07;5.10;;;1.27;;
24381;SDS011;12502;50.678;7.172;2022-09-17T15:15:15;4.93;;;1.17;;
24381;SDS011;12502;50.678;7.172;2022-09-17T15:20:21;5.90;;;1.35;;
24381;SDS011;12502;50.678;7.172;2022-09-17T15:25:28;3.83;;;0.90;;
24381;SDS011;12502;50.678;7.172;2022-09-17T15:30:31;2.83;;;1.10;;
24381;SDS011;12502;50.678;7.172;2022-09-17T15:35:33;4.63;;;1.30;;
24381;SDS011;12502;50.678;7.172;2022-09-17T15:40:38;5.50;;;1.52;;
24381;SDS011;12502;50.678;7.172;2022-09-17T15:45:41;6.10;;;1.75;;
24381;SDS011;12502;50.678;7.172;2022-09-17T15:56:27;4.18;;;1.40;;
24381;SDS011;12502;50.678;7.172;2022-09-17T16:06:58;6.45;;;1.50;;
24381;SDS011;12502;50.678;7.172;2022-09-17T16:12:14;6.82;;;1.67;;
24381;SDS011;12502;50.678;7.172;2022-09-17T16:17:25;8.77;;;1.95;;
24381;SDS011;12502;50.678;7.172;2022-09-17T16:22:35;4.63;;;1.65;;
24381;SDS011;12502;50.678;7.172;2022-09-17T16:32:52;7.82;;;1.92;;
24381;SDS011;12502;50.678;7.172;2022-09-17T16:37:54;7.55;;;2.30;;
24381;SDS011;12502;50.678;7.172;2022-09-17T16:43:00;7.57;;;2.40;;
24381;SDS011;12502;50.678;7.172;2022-09-17T16:48:03;8.90;;;2.00;;
24381;SDS011;12502;50.678;7.172;2022-09-17T16:53:06;12.52;;;2.60;;
24381;SDS011;12502;50.678;7.172;2022-09-17T16:58:07;6.28;;;2.22;;
24381;SDS011;12502;50.678;7.172;2022-09-17T17:03:13;6.43;;;1.85;;
24381;SDS011;12502;50.678;7.172;2022-09-17T17:08:16;7.93;;;2.92;;
24381;SDS011;12502;50.678;7.172;2022-09-17T17:13:19;6.70;;;3.13;;
24381;SDS011;12502;50.678;7.172;2022-09-17T17:18:21;7.60;;;2.15;;
24381;SDS011;12502;50.678;7.172;2022-09-17T17:23:23;11.25;;;2.60;;
24381;SDS011;12502;50.678;7.172;2022-09-17T17:28:25;6.97;;;2.70;;
24381;SDS011;12502;50.678;7.172;2022-09-17T17:33:27;10.93;;;2.28;;
24381;SDS011;12502;50.678;7.172;2022-09-17T17:38:29;11.50;;;3.08;;
24381;SDS011;12502;50.678;7.172;2022-09-17T17:43:30;7.35;;;3.47;;
24381;SDS011;12502;50.678;7.172;2022-09-17T17:48:32;9.57;;;2.80;;
24381;SDS011;12502;50.678;7.172;2022-09-17T17:53:35;16.05;;;3.55;;
24381;SDS011;12502;50.678;7.172;2022-09-17T17:58:37;14.07;;;4.38;;
24381;SDS011;12502;50.678;7.172;2022-09-17T18:03:39;10.88;;;3.10;;
24381;SDS011;12502;50.678;7.172;2022-09-17T18:08:41;8.55;;;3.60;;
24381;SDS011;12502;50.678;7.172;2022-09-17T18:13:43;10.57;;;3.17;;
24381;SDS011;12502;50.678;7.172;2022-09-17T18:18:45;10.20;;;3.15;;
24381;SDS011;12502;50.678;7.172;2022-09-17T18:23:48;10.30;;;4.10;;
24381;SDS011;12502;50.678;7.172;2022-09-17T18:28:51;12.70;;;3.28;;
24381;SDS011;12502;50.678;7.172;2022-09-17T18:33:54;13.25;;;4.15;;
24381;SDS011;12502;50.678;7.172;2022-09-17T18:38:57;10.52;;;3.80;;
24381;SDS011;12502;50.678;7.172;2022-09-17T18:44:22;15.00;;;4.03;;
24381;SDS011;12502;50.678;7.172;2022-09-17T18:49:25;14.32;;;3.90;;
24381;SDS011;12502;50.678;7.172;2022-09-17T18:54:27;15.70;;;3.88;;
24381;SDS011;12502;50.678;7.172;2022-09-17T18:59:29;10.75;;;3.38;;
24381;SDS011;12502;50.678;7.172;2022-09-17T19:04:30;9.68;;;2.97;;
24381;SDS011;12502;50.678;7.172;2022-09-17T19:09:32;8.68;;;4.07;;
24381;SDS011;12502;50.678;7.172;2022-09-17T19:14:34;9.38;;;3.65;;
24381;SDS011;12502;50.678;7.172;2022-09-17T19:19:36;7.93;;;3.75;;
24381;SDS011;12502;50.678;7.172;2022-09-17T19:24:37;11.55;;;3.42;;
24381;SDS011;12502;50.678;7.172;2022-09-17T19:29:39;11.38;;;3.60;;
24381;SDS011;12502;50.678;7.172;2022-09-17T19:34:41;13.60;;;2.85;;
24381;SDS011;12502;50.678;7.172;2022-09-17T19:39:42;8.40;;;2.25;;
24381;SDS011;12502;50.678;7.172;2022-09-17T19:44:44;8.00;;;2.13;;
24381;SDS011;12502;50.678;7.172;2022-09-17T19:49:46;14.40;;;2.58;;
24381;SDS011;12502;50.678;7.172;2022-09-17T19:59:53;12.93;;;2.25;;
24381;SDS011;12502;50.678;7.172;2022-09-17T20:04:55;11.73;;;2.55;;
24381;SDS011;12502;50.678;7.172;2022-09-17T20:09:57;11.73;;;2.50;;
24381;SDS011;12502;50.678;7.172;2022-09-17T20:14:59;8.60;;;2.03;;
24381;SDS011;12502;50.678;7.172;2022-09-17T20:20:01;13.82;;;2.85;;
24381;SDS011;12502;50.678;7.172;2022-09-17T20:25:04;8.20;;;1.90;;
24381;SDS011;12502;50.678;7.172;2022-09-17T20:30:06;9.98;;;2.13;;
24381;SDS011;12502;50.678;7.172;2022-09-17T20:35:08;7.90;;;2.33;;
24381;SDS011;12502;50.678;7.172;2022-09-17T20:40:10;9.23;;;2.15;;
24381;SDS011;12502;50.678;7.172;2022-09-17T20:45:12;7.80;;;2.65;;
24381;SDS011;12502;50.678;7.172;2022-09-17T20:50:14;9.13;;;2.25;;
24381;SDS011;12502;50.678;7.172;2022-09-17T20:55:15;9.02;;;2.55;;
24381;SDS011;12502;50.678;7.172;2022-09-17T21:00:18;11.98;;;2.00;;
24381;SDS011;12502;50.678;7.172;2022-09-17T21:05:21;10.85;;;2.38;;
24381;SDS011;12502;50.678;7.172;2022-09-17T21:10:23;6.28;;;2.13;;
24381;SDS011;12502;50.678;7.172;2022-09-17T21:15:24;5.55;;;1.98;;
24381;SDS011;12502;50.678;7.172;2022-09-17T21:20:26;10.25;;;2.05;;
24381;SDS011;12502;50.678;7.172;2022-09-17T21:25:28;12.15;;;2.22;;
24381;SDS011;12502;50.678;7.172;2022-09-17T21:30:30;8.15;;;2.00;;
24381;SDS011;12502;50.678;7.172;2022-09-17T21:35:31;9.52;;;2.00;;
24381;SDS011;12502;50.678;7.172;2022-09-17T21:40:33;4.65;;;2.25;;
24381;SDS011;12502;50.678;7.172;2022-09-17T21:45:35;6.13;;;1.98;;
24381;SDS011;12502;50.678;7.172;2022-09-17T21:50:37;8.07;;;2.00;;
24381;SDS011;12502;50.678;7.172;2022-09-17T21:55:38;5.97;;;1.80;;
24381;SDS011;12502;50.678;7.172;2022-09-17T22:00:40;8.55;;;2.25;;
24381;SDS011;12502;50.678;7.172;2022-09-17T22:05:43;9.27;;;1.85;;
24381;SDS011;12502;50.678;7.172;2022-09-17T22:10:44;7.88;;;2.00;;
24381;SDS011;12502;50.678;7.172;2022-09-17T22:15:54;7.10;;;1.80;;
24381;SDS011;12502;50.678;7.172;2022-09-17T22:20:57;5.00;;;1.77;;
24381;SDS011;12502;50.678;7.172;2022-09-17T22:26:00;6.53;;;1.50;;
24381;SDS011;12502;50.678;7.172;2022-09-17T22:31:04;5.97;;;1.80;;
24381;SDS011;12502;50.678;7.172;2022-09-17T22:36:11;5.05;;;1.90;;
24381;SDS011;12502;50.678;7.172;2022-09-17T22:41:16;7.35;;;1.70;;
24381;SDS011;12502;50.678;7.172;2022-09-17T22:46:21;5.85;;;1.70;;
24381;SDS011;12502;50.678;7.172;2022-09-17T22:51:24;4.53;;;1.83;;
24381;SDS011;12502;50.678;7.172;2022-09-17T22:56:27;4.03;;;1.77;;
24381;SDS011;12502;50.678;7.172;2022-09-17T23:01:30;7.38;;;2.17;;
24381;SDS011;12502;50.678;7.172;2022-09-17T23:06:35;5.28;;;1.73;;
24381;SDS011;12502;50.678;7.172;2022-09-17T23:16:41;4.53;;;2.13;;
24381;SDS011;12502;50.678;7.172;2022-09-17T23:21:45;4.60;;;1.92;;
24381;SDS011;12502;50.678;7.172;2022-09-17T23:26:47;6.22;;;1.90;;
24381;SDS011;12502;50.678;7.172;2022-09-17T23:31:49;7.93;;;2.20;;
24381;SDS011;12502;50.678;7.172;2022-09-17T23:36:51;6.93;;;2.05;;
24381;SDS011;12502;50.678;7.172;2022-09-17T23:41:53;4.55;;;1.52;;
24381;SDS011;12502;50.678;7.172;2022-09-17T23:46:56;7.25;;;2.20;;
24381;SDS011;12502;50.678;7.172;2022-09-17T23:51:58;7.80;;;2.28;;
24381;SDS011;12502;50.678;7.172;2022-09-17T23:57:00;4.10;;;2.42;;
